sensor_id;sensor_type;location;lat;lon;timestamp;pressure;altitude;pressure_sealevel;temperature
9119;BMP180;4594;50.994;7.126;2023-01-28T00:01:57;101703.00;;;8.20
9119;BMP180;4594;50.994;7.126;2023-01-28T00:04:23;101694.00;;;8.10
9119;BMP180;4594;50.994;7.126;2023-01-28T00:06:49;101716.00;;;8.00
9119;BMP180;4594;50.994;7.126;2023-01-28T00:09:15;101697.00;;;7.90
9119;BMP180;4594;50.994;7.126;2023-01-28T00:11:40;101710.00;;;7.80
9119;BMP180;4594;50.994;7.126;2023-01-28T00:14:07;101688.00;;;7.80
9119;BMP180;4594;50.994;7.126;2023-01-28T00:16:33;101702.00;;;7.70
9119;BMP180;4594;50.994;7.126;2023-01-28T00:18:58;101690.00;;;7.60
9119;BMP180;4594;50.994;7.126;2023-01-28T00:21:24;101669.00;;;7.50
9119;BMP180;4594;50.994;7.126;2023-01-28T00:23:55;101695.00;;;7.40
9119;BMP180;4594;50.994;7.126;2023-01-28T00:26:22;101695.00;;;7.40
9119;BMP180;4594;50.994;7.126;2023-01-28T00:28:50;101698.00;;;7.30
9119;BMP180;4594;50.994;7.126;2023-01-28T00:31:25;101701.00;;;7.30
9119;BMP180;4594;50.994;7.126;2023-01-28T00:33:52;101693.00;;;7.10
9119;BMP180;4594;50.994;7.126;2023-01-28T00:36:20;101702.00;;;7.10
9119;BMP180;4594;50.994;7.126;2023-01-28T00:38:52;101708.00;;;7.00
9119;BMP180;4594;50.994;7.126;2023-01-28T00:41:21;101711.00;;;6.90
9119;BMP180;4594;50.994;7.126;2023-01-28T00:43:48;101689.00;;;6.90
9119;BMP180;4594;50.994;7.126;2023-01-28T00:46:14;101714.00;;;6.80
9119;BMP180;4594;50.994;7.126;2023-01-28T00:48:41;101710.00;;;6.80
9119;BMP180;4594;50.994;7.126;2023-01-28T00:51:10;101705.00;;;6.70
9119;BMP180;4594;50.994;7.126;2023-01-28T00:53:36;101703.00;;;6.60
9119;BMP180;4594;50.994;7.126;2023-01-28T00:56:05;101711.00;;;6.60
9119;BMP180;4594;50.994;7.126;2023-01-28T00:58:32;101714.00;;;6.50
9119;BMP180;4594;50.994;7.126;2023-01-28T01:01:09;101711.00;;;6.40
9119;BMP180;4594;50.994;7.126;2023-01-28T01:03:35;101716.00;;;6.30
9119;BMP180;4594;50.994;7.126;2023-01-28T01:06:01;101698.00;;;6.30
9119;BMP180;4594;50.994;7.126;2023-01-28T01:08:27;101694.00;;;6.20
9119;BMP180;4594;50.994;7.126;2023-01-28T01:11:01;101698.00;;;6.20
9119;BMP180;4594;50.994;7.126;2023-01-28T01:13:28;101688.00;;;6.10
9119;BMP180;4594;50.994;7.126;2023-01-28T01:16:12;101670.00;;;6.00
9119;BMP180;4594;50.994;7.126;2023-01-28T01:18:38;101691.00;;;6.00
9119;BMP180;4594;50.994;7.126;2023-01-28T01:21:14;101695.00;;;5.90
9119;BMP180;4594;50.994;7.126;2023-01-28T01:23:40;101697.00;;;5.90
9119;BMP180;4594;50.994;7.126;2023-01-28T01:26:06;101706.00;;;5.80
9119;BMP180;4594;50.994;7.126;2023-01-28T01:28:32;101693.00;;;5.80
9119;BMP180;4594;50.994;7.126;2023-01-28T01:31:16;101703.00;;;5.70
9119;BMP180;4594;50.994;7.126;2023-01-28T01:33:45;101693.00;;;5.60
9119;BMP180;4594;50.994;7.126;2023-01-28T01:36:13;101689.00;;;5.60
9119;BMP180;4594;50.994;7.126;2023-01-28T01:38:40;101707.00;;;5.60
9119;BMP180;4594;50.994;7.126;2023-01-28T01:41:08;101707.00;;;5.50
9119;BMP180;4594;50.994;7.126;2023-01-28T01:43:56;101698.00;;;5.50
9119;BMP180;4594;50.994;7.126;2023-01-28T01:46:42;101699.00;;;5.40
9119;BMP180;4594;50.994;7.126;2023-01-28T01:49:17;101697.00;;;5.40
9119;BMP180;4594;50.994;7.126;2023-01-28T01:51:49;101700.00;;;5.30
9119;BMP180;4594;50.994;7.126;2023-01-28T01:54:18;101701.00;;;5.30
9119;BMP180;4594;50.994;7.126;2023-01-28T01:56:48;101702.00;;;5.20
9119;BMP180;4594;50.994;7.126;2023-01-28T01:59:21;101709.00;;;5.20
9119;BMP180;4594;50.994;7.126;2023-01-28T02:01:48;101708.00;;;5.20
9119;BMP180;4594;50.994;7.126;2023-01-28T02:04:28;101702.00;;;5.10
9119;BMP180;4594;50.994;7.126;2023-01-28T02:06:59;101700.00;;;5.00
9119;BMP180;4594;50.994;7.126;2023-01-28T02:09:34;101700.00;;;5.00
9119;BMP180;4594;50.994;7.126;2023-01-28T02:12:11;101681.00;;;5.00
9119;BMP180;4594;50.994;7.126;2023-01-28T02:14:53;101698.00;;;5.00
9119;BMP180;4594;50.994;7.126;2023-01-28T02:17:21;101701.00;;;5.00
9119;BMP180;4594;50.994;7.126;2023-01-28T02:19:58;101669.00;;;4.90
9119;BMP180;4594;50.994;7.126;2023-01-28T02:32:14;101690.00;;;4.80
9119;BMP180;4594;50.994;7.126;2023-01-28T02:34:57;101701.00;;;4.80
9119;BMP180;4594;50.994;7.126;2023-01-28T02:37:41;101702.00;;;4.80
9119;BMP180;4594;50.994;7.126;2023-01-28T02:40:34;101706.00;;;4.80
9119;BMP180;4594;50.994;7.126;2023-01-28T02:43:44;101713.00;;;4.70
9119;BMP180;4594;50.994;7.126;2023-01-28T02:46:18;101715.00;;;4.70
9119;BMP180;4594;50.994;7.126;2023-01-28T02:49:27;101716.00;;;4.70
9119;BMP180;4594;50.994;7.126;2023-01-28T02:55:38;101735.00;;;4.70
9119;BMP180;4594;50.994;7.126;2023-01-28T02:58:18;101732.00;;;4.70
9119;BMP180;4594;50.994;7.126;2023-01-28T03:06:26;101726.00;;;4.60
9119;BMP180;4594;50.994;7.126;2023-01-28T03:08:58;101734.00;;;4.60
9119;BMP180;4594;50.994;7.126;2023-01-28T03:12:09;101748.00;;;4.60
9119;BMP180;4594;50.994;7.126;2023-01-28T03:15:12;101736.00;;;4.60
9119;BMP180;4594;50.994;7.126;2023-01-28T03:21:33;101742.00;;;4.50
9119;BMP180;4594;50.994;7.126;2023-01-28T03:24:49;101750.00;;;4.50
9119;BMP180;4594;50.994;7.126;2023-01-28T03:27:59;101747.00;;;4.40
9119;BMP180;4594;50.994;7.126;2023-01-28T03:30:57;101709.00;;;4.40
9119;BMP180;4594;50.994;7.126;2023-01-28T03:33:47;101719.00;;;4.40
9119;BMP180;4594;50.994;7.126;2023-01-28T03:36:32;101730.00;;;4.40
9119;BMP180;4594;50.994;7.126;2023-01-28T03:39:24;101730.00;;;4.30
9119;BMP180;4594;50.994;7.126;2023-01-28T03:42:12;101737.00;;;4.30
9119;BMP180;4594;50.994;7.126;2023-01-28T03:44:38;101721.00;;;4.30
9119;BMP180;4594;50.994;7.126;2023-01-28T03:47:27;101755.00;;;4.30
9119;BMP180;4594;50.994;7.126;2023-01-28T03:49:55;101745.00;;;4.20
9119;BMP180;4594;50.994;7.126;2023-01-28T03:52:25;101753.00;;;4.30
9119;BMP180;4594;50.994;7.126;2023-01-28T03:54:52;101757.00;;;4.20
9119;BMP180;4594;50.994;7.126;2023-01-28T03:57:21;101756.00;;;4.20
9119;BMP180;4594;50.994;7.126;2023-01-28T03:59:48;101752.00;;;4.20
9119;BMP180;4594;50.994;7.126;2023-01-28T04:02:21;101761.00;;;4.20
9119;BMP180;4594;50.994;7.126;2023-01-28T04:04:48;101764.00;;;4.20
9119;BMP180;4594;50.994;7.126;2023-01-28T04:07:14;101756.00;;;4.20
9119;BMP180;4594;50.994;7.126;2023-01-28T04:09:41;101745.00;;;4.10
9119;BMP180;4594;50.994;7.126;2023-01-28T04:12:08;101751.00;;;4.10
9119;BMP180;4594;50.994;7.126;2023-01-28T04:14:34;101755.00;;;4.10
9119;BMP180;4594;50.994;7.126;2023-01-28T04:17:00;101768.00;;;4.10
9119;BMP180;4594;50.994;7.126;2023-01-28T04:19:27;101779.00;;;4.10
9119;BMP180;4594;50.994;7.126;2023-01-28T04:21:53;101770.00;;;4.10
9119;BMP180;4594;50.994;7.126;2023-01-28T04:24:20;101763.00;;;4.10
9119;BMP180;4594;50.994;7.126;2023-01-28T04:26:46;101782.00;;;4.10
9119;BMP180;4594;50.994;7.126;2023-01-28T04:29:12;101781.00;;;4.10
9119;BMP180;4594;50.994;7.126;2023-01-28T04:31:38;101784.00;;;4.00
9119;BMP180;4594;50.994;7.126;2023-01-28T04:34:03;101769.00;;;4.00
9119;BMP180;4594;50.994;7.126;2023-01-28T04:36:29;101784.00;;;4.00
9119;BMP180;4594;50.994;7.126;2023-01-28T04:38:55;101782.00;;;4.00
9119;BMP180;4594;50.994;7.126;2023-01-28T04:41:20;101774.00;;;4.00
9119;BMP180;4594;50.994;7.126;2023-01-28T04:43:46;101793.00;;;4.00
9119;BMP180;4594;50.994;7.126;2023-01-28T04:46:14;101788.00;;;3.90
9119;BMP180;4594;50.994;7.126;2023-01-28T04:48:40;101735.00;;;3.90
9119;BMP180;4594;50.994;7.126;2023-01-28T04:51:06;101787.00;;;3.90
9119;BMP180;4594;50.994;7.126;2023-01-28T04:53:32;101780.00;;;3.90
9119;BMP180;4594;50.994;7.126;2023-01-28T04:55:58;101773.00;;;3.90
9119;BMP180;4594;50.994;7.126;2023-01-28T04:58:24;101809.00;;;3.90
9119;BMP180;4594;50.994;7.126;2023-01-28T05:00:58;101790.00;;;3.90
9119;BMP180;4594;50.994;7.126;2023-01-28T05:03:24;101808.00;;;3.80
9119;BMP180;4594;50.994;7.126;2023-01-28T05:05:51;101806.00;;;3.80
9119;BMP180;4594;50.994;7.126;2023-01-28T05:08:17;101812.00;;;3.80
9119;BMP180;4594;50.994;7.126;2023-01-28T05:10:43;101782.00;;;3.90
9119;BMP180;4594;50.994;7.126;2023-01-28T05:13:09;101789.00;;;4.00
9119;BMP180;4594;50.994;7.126;2023-01-28T05:15:36;101796.00;;;4.00
9119;BMP180;4594;50.994;7.126;2023-01-28T05:18:02;101817.00;;;4.10
9119;BMP180;4594;50.994;7.126;2023-01-28T05:20:27;101805.00;;;4.20
9119;BMP180;4594;50.994;7.126;2023-01-28T05:22:53;101816.00;;;4.30
9119;BMP180;4594;50.994;7.126;2023-01-28T05:25:19;101822.00;;;4.40
9119;BMP180;4594;50.994;7.126;2023-01-28T05:27:52;101807.00;;;4.50
9119;BMP180;4594;50.994;7.126;2023-01-28T05:30:19;101816.00;;;4.60
9119;BMP180;4594;50.994;7.126;2023-01-28T05:32:45;101823.00;;;4.70
9119;BMP180;4594;50.994;7.126;2023-01-28T05:35:11;101810.00;;;4.80
9119;BMP180;4594;50.994;7.126;2023-01-28T05:37:37;101812.00;;;4.90
9119;BMP180;4594;50.994;7.126;2023-01-28T05:40:03;101806.00;;;5.00
9119;BMP180;4594;50.994;7.126;2023-01-28T05:42:29;101807.00;;;5.00
9119;BMP180;4594;50.994;7.126;2023-01-28T05:44:54;101809.00;;;5.10
9119;BMP180;4594;50.994;7.126;2023-01-28T05:47:20;101822.00;;;5.20
9119;BMP180;4594;50.994;7.126;2023-01-28T05:49:45;101815.00;;;5.30
9119;BMP180;4594;50.994;7.126;2023-01-28T05:52:11;101819.00;;;5.40
9119;BMP180;4594;50.994;7.126;2023-01-28T05:54:37;101817.00;;;5.40
9119;BMP180;4594;50.994;7.126;2023-01-28T05:57:03;101823.00;;;5.50
9119;BMP180;4594;50.994;7.126;2023-01-28T05:59:29;101821.00;;;5.60
9119;BMP180;4594;50.994;7.126;2023-01-28T06:01:55;101823.00;;;5.70
9119;BMP180;4594;50.994;7.126;2023-01-28T06:04:21;101831.00;;;5.80
9119;BMP180;4594;50.994;7.126;2023-01-28T06:06:47;101832.00;;;5.90
9119;BMP180;4594;50.994;7.126;2023-01-28T06:09:12;101833.00;;;5.90
9119;BMP180;4594;50.994;7.126;2023-01-28T06:11:38;101832.00;;;6.00
9119;BMP180;4594;50.994;7.126;2023-01-28T06:14:04;101826.00;;;6.10
9119;BMP180;4594;50.994;7.126;2023-01-28T06:16:29;101841.00;;;6.10
9119;BMP180;4594;50.994;7.126;2023-01-28T06:18:55;101836.00;;;6.20
9119;BMP180;4594;50.994;7.126;2023-01-28T06:21:21;101834.00;;;6.20
9119;BMP180;4594;50.994;7.126;2023-01-28T06:23:48;101834.00;;;6.30
9119;BMP180;4594;50.994;7.126;2023-01-28T06:26:13;101838.00;;;6.40
9119;BMP180;4594;50.994;7.126;2023-01-28T06:28:39;101825.00;;;6.50
9119;BMP180;4594;50.994;7.126;2023-01-28T06:31:04;101835.00;;;6.50
9119;BMP180;4594;50.994;7.126;2023-01-28T06:33:30;101843.00;;;6.60
9119;BMP180;4594;50.994;7.126;2023-01-28T06:35:56;101857.00;;;6.70
9119;BMP180;4594;50.994;7.126;2023-01-28T06:38:22;101850.00;;;6.70
9119;BMP180;4594;50.994;7.126;2023-01-28T06:40:52;101853.00;;;6.80
9119;BMP180;4594;50.994;7.126;2023-01-28T06:43:21;101850.00;;;6.80
9119;BMP180;4594;50.994;7.126;2023-01-28T06:45:56;101856.00;;;6.90
9119;BMP180;4594;50.994;7.126;2023-01-28T06:48:23;101861.00;;;7.00
9119;BMP180;4594;50.994;7.126;2023-01-28T06:50:50;101849.00;;;7.00
9119;BMP180;4594;50.994;7.126;2023-01-28T06:53:16;101852.00;;;7.00
9119;BMP180;4594;50.994;7.126;2023-01-28T06:55:42;101845.00;;;7.10
9119;BMP180;4594;50.994;7.126;2023-01-28T06:58:08;101848.00;;;7.10
9119;BMP180;4594;50.994;7.126;2023-01-28T07:00:34;101852.00;;;7.20
9119;BMP180;4594;50.994;7.126;2023-01-28T07:02:59;101849.00;;;7.20
9119;BMP180;4594;50.994;7.126;2023-01-28T07:05:25;101851.00;;;7.20
9119;BMP180;4594;50.994;7.126;2023-01-28T07:07:51;101855.00;;;7.30
9119;BMP180;4594;50.994;7.126;2023-01-28T07:10:17;101865.00;;;7.30
9119;BMP180;4594;50.994;7.126;2023-01-28T07:12:43;101864.00;;;7.30
9119;BMP180;4594;50.994;7.126;2023-01-28T07:15:10;101857.00;;;7.40
9119;BMP180;4594;50.994;7.126;2023-01-28T07:17:42;101870.00;;;7.40
9119;BMP180;4594;50.994;7.126;2023-01-28T07:20:11;101873.00;;;7.40
9119;BMP180;4594;50.994;7.126;2023-01-28T07:22:40;101872.00;;;7.40
9119;BMP180;4594;50.994;7.126;2023-01-28T07:25:08;101861.00;;;7.40
9119;BMP180;4594;50.994;7.126;2023-01-28T07:27:34;101870.00;;;7.40
9119;BMP180;4594;50.994;7.126;2023-01-28T07:29:59;101872.00;;;7.40
9119;BMP180;4594;50.994;7.126;2023-01-28T07:32:25;101873.00;;;7.50
9119;BMP180;4594;50.994;7.126;2023-01-28T07:34:55;101870.00;;;7.50
9119;BMP180;4594;50.994;7.126;2023-01-28T07:37:20;101863.00;;;7.50
9119;BMP180;4594;50.994;7.126;2023-01-28T07:39:46;101865.00;;;7.50
9119;BMP180;4594;50.994;7.126;2023-01-28T07:42:12;101877.00;;;7.50
9119;BMP180;4594;50.994;7.126;2023-01-28T07:44:38;101874.00;;;7.60
9119;BMP180;4594;50.994;7.126;2023-01-28T07:47:05;101864.00;;;7.60
9119;BMP180;4594;50.994;7.126;2023-01-28T07:49:33;101859.00;;;7.60
9119;BMP180;4594;50.994;7.126;2023-01-28T07:51:59;101862.00;;;7.60
9119;BMP180;4594;50.994;7.126;2023-01-28T07:54:25;101870.00;;;7.60
9119;BMP180;4594;50.994;7.126;2023-01-28T07:56:50;101869.00;;;7.60
9119;BMP180;4594;50.994;7.126;2023-01-28T07:59:16;101872.00;;;7.60
9119;BMP180;4594;50.994;7.126;2023-01-28T08:01:41;101869.00;;;7.60
9119;BMP180;4594;50.994;7.126;2023-01-28T08:04:07;101872.00;;;7.70
9119;BMP180;4594;50.994;7.126;2023-01-28T08:06:33;101870.00;;;7.70
9119;BMP180;4594;50.994;7.126;2023-01-28T08:09:04;101870.00;;;7.70
9119;BMP180;4594;50.994;7.126;2023-01-28T08:11:31;101875.00;;;7.70
9119;BMP180;4594;50.994;7.126;2023-01-28T08:13:57;101882.00;;;7.80
9119;BMP180;4594;50.994;7.126;2023-01-28T08:16:23;101893.00;;;7.80
9119;BMP180;4594;50.994;7.126;2023-01-28T08:18:49;101896.00;;;7.80
9119;BMP180;4594;50.994;7.126;2023-01-28T08:21:15;101900.00;;;7.80
9119;BMP180;4594;50.994;7.126;2023-01-28T08:23:40;101899.00;;;7.80
9119;BMP180;4594;50.994;7.126;2023-01-28T08:26:06;101909.00;;;7.80
9119;BMP180;4594;50.994;7.126;2023-01-28T08:28:32;101911.00;;;7.80
9119;BMP180;4594;50.994;7.126;2023-01-28T08:30:59;101913.00;;;7.90
9119;BMP180;4594;50.994;7.126;2023-01-28T08:33:25;101897.00;;;7.90
9119;BMP180;4594;50.994;7.126;2023-01-28T08:35:52;101902.00;;;7.90
9119;BMP180;4594;50.994;7.126;2023-01-28T08:38:18;101900.00;;;7.90
9119;BMP180;4594;50.994;7.126;2023-01-28T08:40:46;101917.00;;;8.00
9119;BMP180;4594;50.994;7.126;2023-01-28T08:43:12;101915.00;;;8.00
9119;BMP180;4594;50.994;7.126;2023-01-28T08:45:41;101906.00;;;8.00
9119;BMP180;4594;50.994;7.126;2023-01-28T08:48:11;101917.00;;;8.00
9119;BMP180;4594;50.994;7.126;2023-01-28T08:50:39;101929.00;;;8.00
9119;BMP180;4594;50.994;7.126;2023-01-28T08:53:19;101926.00;;;8.00
9119;BMP180;4594;50.994;7.126;2023-01-28T08:55:46;101925.00;;;8.00
9119;BMP180;4594;50.994;7.126;2023-01-28T08:58:16;101936.00;;;8.10
9119;BMP180;4594;50.994;7.126;2023-01-28T09:00:43;101935.00;;;8.10
9119;BMP180;4594;50.994;7.126;2023-01-28T09:03:09;101928.00;;;8.10
9119;BMP180;4594;50.994;7.126;2023-01-28T09:05:36;101929.00;;;8.10
9119;BMP180;4594;50.994;7.126;2023-01-28T09:08:07;101925.00;;;8.20
9119;BMP180;4594;50.994;7.126;2023-01-28T09:10:34;101942.00;;;8.20
9119;BMP180;4594;50.994;7.126;2023-01-28T09:13:11;101947.00;;;8.20
9119;BMP180;4594;50.994;7.126;2023-01-28T09:15:37;101947.00;;;8.30
9119;BMP180;4594;50.994;7.126;2023-01-28T09:18:04;101944.00;;;8.30
9119;BMP180;4594;50.994;7.126;2023-01-28T09:20:29;101952.00;;;8.30
9119;BMP180;4594;50.994;7.126;2023-01-28T09:22:58;101962.00;;;8.30
9119;BMP180;4594;50.994;7.126;2023-01-28T09:25:24;101976.00;;;8.40
9119;BMP180;4594;50.994;7.126;2023-01-28T09:27:50;101976.00;;;8.40
9119;BMP180;4594;50.994;7.126;2023-01-28T09:30:16;101984.00;;;8.40
9119;BMP180;4594;50.994;7.126;2023-01-28T09:32:41;101984.00;;;8.40
9119;BMP180;4594;50.994;7.126;2023-01-28T09:35:08;101990.00;;;8.40
9119;BMP180;4594;50.994;7.126;2023-01-28T09:37:34;101996.00;;;8.40
9119;BMP180;4594;50.994;7.126;2023-01-28T09:40:01;101987.00;;;8.40
9119;BMP180;4594;50.994;7.126;2023-01-28T09:42:56;101989.00;;;8.40
9119;BMP180;4594;50.994;7.126;2023-01-28T09:45:36;101997.00;;;8.50
9119;BMP180;4594;50.994;7.126;2023-01-28T09:48:04;101991.00;;;8.50
9119;BMP180;4594;50.994;7.126;2023-01-28T09:50:41;101995.00;;;8.50
9119;BMP180;4594;50.994;7.126;2023-01-28T09:53:34;101997.00;;;8.50
9119;BMP180;4594;50.994;7.126;2023-01-28T09:56:08;101991.00;;;8.60
9119;BMP180;4594;50.994;7.126;2023-01-28T09:58:34;102005.00;;;8.60
9119;BMP180;4594;50.994;7.126;2023-01-28T10:01:37;101994.00;;;8.50
9119;BMP180;4594;50.994;7.126;2023-01-28T10:04:38;102009.00;;;8.50
9119;BMP180;4594;50.994;7.126;2023-01-28T10:07:38;102008.00;;;8.40
9119;BMP180;4594;50.994;7.126;2023-01-28T10:10:15;102003.00;;;8.30
9119;BMP180;4594;50.994;7.126;2023-01-28T10:21:23;102002.00;;;8.20
9119;BMP180;4594;50.994;7.126;2023-01-28T10:24:16;101998.00;;;8.20
9119;BMP180;4594;50.994;7.126;2023-01-28T10:26:46;101980.00;;;8.20
9119;BMP180;4594;50.994;7.126;2023-01-28T10:29:20;101995.00;;;8.20
9119;BMP180;4594;50.994;7.126;2023-01-28T10:32:31;101996.00;;;8.10
9119;BMP180;4594;50.994;7.126;2023-01-28T10:34:59;101997.00;;;8.10
9119;BMP180;4594;50.994;7.126;2023-01-28T10:37:34;102000.00;;;8.20
9119;BMP180;4594;50.994;7.126;2023-01-28T10:40:02;101997.00;;;8.20
9119;BMP180;4594;50.994;7.126;2023-01-28T10:42:32;101993.00;;;8.30
9119;BMP180;4594;50.994;7.126;2023-01-28T10:45:20;101996.00;;;8.30
9119;BMP180;4594;50.994;7.126;2023-01-28T10:48:00;102000.00;;;8.30
9119;BMP180;4594;50.994;7.126;2023-01-28T10:50:29;101998.00;;;8.30
9119;BMP180;4594;50.994;7.126;2023-01-28T10:53:05;101991.00;;;8.30
9119;BMP180;4594;50.994;7.126;2023-01-28T10:55:56;101993.00;;;8.30
9119;BMP180;4594;50.994;7.126;2023-01-28T10:58:33;101991.00;;;8.30
9119;BMP180;4594;50.994;7.126;2023-01-28T11:01:05;101997.00;;;8.30
9119;BMP180;4594;50.994;7.126;2023-01-28T11:03:31;101996.00;;;8.20
9119;BMP180;4594;50.994;7.126;2023-01-28T11:06:01;101985.00;;;8.20
9119;BMP180;4594;50.994;7.126;2023-01-28T11:08:29;101989.00;;;8.20
9119;BMP180;4594;50.994;7.126;2023-01-28T11:10:56;101976.00;;;8.20
9119;BMP180;4594;50.994;7.126;2023-01-28T11:13:28;101993.00;;;8.10
9119;BMP180;4594;50.994;7.126;2023-01-28T11:16:02;101999.00;;;8.20
9119;BMP180;4594;50.994;7.126;2023-01-28T11:18:40;101995.00;;;8.20
9119;BMP180;4594;50.994;7.126;2023-01-28T11:21:29;102001.00;;;8.20
9119;BMP180;4594;50.994;7.126;2023-01-28T11:24:03;102003.00;;;8.20
9119;BMP180;4594;50.994;7.126;2023-01-28T11:26:37;101992.00;;;8.30
9119;BMP180;4594;50.994;7.126;2023-01-28T11:29:05;101995.00;;;8.30
9119;BMP180;4594;50.994;7.126;2023-01-28T11:31:42;101994.00;;;8.40
9119;BMP180;4594;50.994;7.126;2023-01-28T11:34:16;101998.00;;;8.40
9119;BMP180;4594;50.994;7.126;2023-01-28T11:36:59;102000.00;;;8.50
9119;BMP180;4594;50.994;7.126;2023-01-28T11:39:26;102004.00;;;8.50
9119;BMP180;4594;50.994;7.126;2023-01-28T11:42:12;101994.00;;;8.50
9119;BMP180;4594;50.994;7.126;2023-01-28T11:44:40;101997.00;;;8.60
9119;BMP180;4594;50.994;7.126;2023-01-28T11:47:43;101998.00;;;8.60
9119;BMP180;4594;50.994;7.126;2023-01-28T11:53:28;102014.00;;;8.60
9119;BMP180;4594;50.994;7.126;2023-01-28T12:02:45;101955.00;;;8.60
9119;BMP180;4594;50.994;7.126;2023-01-28T12:08:32;101963.00;;;8.60
9119;BMP180;4594;50.994;7.126;2023-01-28T12:14:31;101947.00;;;8.70
9119;BMP180;4594;50.994;7.126;2023-01-28T12:24:56;101961.00;;;8.50
9119;BMP180;4594;50.994;7.126;2023-01-28T12:28:25;101976.00;;;8.60
9119;BMP180;4594;50.994;7.126;2023-01-28T12:42:51;101979.00;;;8.80
9119;BMP180;4594;50.994;7.126;2023-01-28T12:45:26;101976.00;;;8.80
9119;BMP180;4594;50.994;7.126;2023-01-28T12:51:14;101973.00;;;8.80
9119;BMP180;4594;50.994;7.126;2023-01-28T12:54:01;101966.00;;;8.90
9119;BMP180;4594;50.994;7.126;2023-01-28T12:56:40;101972.00;;;8.90
9119;BMP180;4594;50.994;7.126;2023-01-28T12:59:34;101965.00;;;9.00
9119;BMP180;4594;50.994;7.126;2023-01-28T13:04:50;101951.00;;;9.10
9119;BMP180;4594;50.994;7.126;2023-01-28T13:07:34;101952.00;;;9.20
9119;BMP180;4594;50.994;7.126;2023-01-28T13:10:18;101941.00;;;9.20
9119;BMP180;4594;50.994;7.126;2023-01-28T13:12:48;101940.00;;;9.20
9119;BMP180;4594;50.994;7.126;2023-01-28T13:15:17;101935.00;;;9.30
9119;BMP180;4594;50.994;7.126;2023-01-28T13:17:54;101923.00;;;9.30
9119;BMP180;4594;50.994;7.126;2023-01-28T13:23:26;101907.00;;;9.40
9119;BMP180;4594;50.994;7.126;2023-01-28T13:28:46;101921.00;;;9.50
9119;BMP180;4594;50.994;7.126;2023-01-28T13:31:16;101905.00;;;9.50
9119;BMP180;4594;50.994;7.126;2023-01-28T13:36:38;101875.00;;;9.40
9119;BMP180;4594;50.994;7.126;2023-01-28T13:39:17;101874.00;;;9.30
9119;BMP180;4594;50.994;7.126;2023-01-28T13:41:51;101861.00;;;9.20
9119;BMP180;4594;50.994;7.126;2023-01-28T13:44:32;101857.00;;;9.00
9119;BMP180;4594;50.994;7.126;2023-01-28T13:49:46;101851.00;;;8.60
9119;BMP180;4594;50.994;7.126;2023-01-28T13:52:36;101884.00;;;8.40
9119;BMP180;4594;50.994;7.126;2023-01-28T13:55:22;101898.00;;;8.30
9119;BMP180;4594;50.994;7.126;2023-01-28T13:58:19;101893.00;;;8.10
9119;BMP180;4594;50.994;7.126;2023-01-28T14:01:37;101913.00;;;8.00
9119;BMP180;4594;50.994;7.126;2023-01-28T14:07:48;101917.00;;;7.80
9119;BMP180;4594;50.994;7.126;2023-01-28T14:16:41;101907.00;;;7.70
9119;BMP180;4594;50.994;7.126;2023-01-28T14:19:12;101930.00;;;7.70
9119;BMP180;4594;50.994;7.126;2023-01-28T14:21:39;101936.00;;;7.60
9119;BMP180;4594;50.994;7.126;2023-01-28T14:24:12;101928.00;;;7.70
9119;BMP180;4594;50.994;7.126;2023-01-28T14:32:30;101943.00;;;7.80
9119;BMP180;4594;50.994;7.126;2023-01-28T14:35:03;101936.00;;;7.90
9119;BMP180;4594;50.994;7.126;2023-01-28T14:37:31;101921.00;;;7.90
9119;BMP180;4594;50.994;7.126;2023-01-28T14:42:41;101933.00;;;8.00
9119;BMP180;4594;50.994;7.126;2023-01-28T14:53:30;101941.00;;;8.00
9119;BMP180;4594;50.994;7.126;2023-01-28T14:56:07;101934.00;;;7.90
9119;BMP180;4594;50.994;7.126;2023-01-28T14:58:51;101941.00;;;7.90
9119;BMP180;4594;50.994;7.126;2023-01-28T15:01:29;101935.00;;;7.80
9119;BMP180;4594;50.994;7.126;2023-01-28T15:03:55;101907.00;;;7.80
9119;BMP180;4594;50.994;7.126;2023-01-28T15:06:24;101927.00;;;7.80
9119;BMP180;4594;50.994;7.126;2023-01-28T15:09:06;101922.00;;;7.70
9119;BMP180;4594;50.994;7.126;2023-01-28T15:11:36;101917.00;;;7.60
9119;BMP180;4594;50.994;7.126;2023-01-28T15:14:07;101911.00;;;7.60
9119;BMP180;4594;50.994;7.126;2023-01-28T15:16:37;101909.00;;;7.50
9119;BMP180;4594;50.994;7.126;2023-01-28T15:19:07;101892.00;;;7.50
9119;BMP180;4594;50.994;7.126;2023-01-28T15:21:34;101885.00;;;7.50
9119;BMP180;4594;50.994;7.126;2023-01-28T15:24:01;101873.00;;;7.40
9119;BMP180;4594;50.994;7.126;2023-01-28T15:26:32;101892.00;;;7.30
9119;BMP180;4594;50.994;7.126;2023-01-28T15:28:58;101874.00;;;7.30
9119;BMP180;4594;50.994;7.126;2023-01-28T15:31:27;101887.00;;;7.20
9119;BMP180;4594;50.994;7.126;2023-01-28T15:34:15;101887.00;;;7.10
9119;BMP180;4594;50.994;7.126;2023-01-28T15:36:42;101890.00;;;7.10
9119;BMP180;4594;50.994;7.126;2023-01-28T15:39:18;101887.00;;;7.00
9119;BMP180;4594;50.994;7.126;2023-01-28T15:42:06;101898.00;;;7.00
9119;BMP180;4594;50.994;7.126;2023-01-28T15:44:42;101904.00;;;6.90
9119;BMP180;4594;50.994;7.126;2023-01-28T15:47:23;101893.00;;;6.80
9119;BMP180;4594;50.994;7.126;2023-01-28T15:49:53;101894.00;;;6.80
9119;BMP180;4594;50.994;7.126;2023-01-28T15:52:29;101910.00;;;6.70
9119;BMP180;4594;50.994;7.126;2023-01-28T15:54:56;101913.00;;;6.70
9119;BMP180;4594;50.994;7.126;2023-01-28T15:57:31;101916.00;;;6.60
9119;BMP180;4594;50.994;7.126;2023-01-28T16:00:13;101916.00;;;6.50
9119;BMP180;4594;50.994;7.126;2023-01-28T16:02:48;101913.00;;;6.50
9119;BMP180;4594;50.994;7.126;2023-01-28T16:05:30;101915.00;;;6.40
9119;BMP180;4594;50.994;7.126;2023-01-28T16:07:57;101922.00;;;6.40
9119;BMP180;4594;50.994;7.126;2023-01-28T16:10:28;101905.00;;;6.30
9119;BMP180;4594;50.994;7.126;2023-01-28T16:13:04;101918.00;;;6.20
9119;BMP180;4594;50.994;7.126;2023-01-28T16:15:32;101916.00;;;6.20
9119;BMP180;4594;50.994;7.126;2023-01-28T16:17:58;101922.00;;;6.10
9119;BMP180;4594;50.994;7.126;2023-01-28T16:20:28;101912.00;;;6.10
9119;BMP180;4594;50.994;7.126;2023-01-28T16:22:58;101942.00;;;6.00
9119;BMP180;4594;50.994;7.126;2023-01-28T16:25:32;101940.00;;;5.90
9119;BMP180;4594;50.994;7.126;2023-01-28T16:28:01;101925.00;;;5.90
9119;BMP180;4594;50.994;7.126;2023-01-28T16:30:28;101935.00;;;5.80
9119;BMP180;4594;50.994;7.126;2023-01-28T16:32:55;101933.00;;;5.80
9119;BMP180;4594;50.994;7.126;2023-01-28T16:35:26;101948.00;;;5.70
9119;BMP180;4594;50.994;7.126;2023-01-28T16:37:53;101964.00;;;5.60
9119;BMP180;4594;50.994;7.126;2023-01-28T16:40:22;101969.00;;;5.60
9119;BMP180;4594;50.994;7.126;2023-01-28T16:42:49;101962.00;;;5.50
9119;BMP180;4594;50.994;7.126;2023-01-28T16:45:18;101995.00;;;5.40
9119;BMP180;4594;50.994;7.126;2023-01-28T16:47:44;101998.00;;;5.40
9119;BMP180;4594;50.994;7.126;2023-01-28T16:50:12;101998.00;;;5.30
9119;BMP180;4594;50.994;7.126;2023-01-28T16:52:40;102010.00;;;5.30
9119;BMP180;4594;50.994;7.126;2023-01-28T16:55:14;102009.00;;;5.30